createdAt,value
2023-03-16T00:02:09.457Z,1.46
2023-03-16T00:05:14.665Z,1.55
2023-03-16T00:08:19.594Z,1.47
2023-03-16T00:11:23.742Z,1.44
2023-03-16T00:14:27.983Z,1.43
2023-03-16T00:17:32.291Z,1.41
2023-03-16T00:20:36.426Z,1.27
2023-03-16T00:23:40.490Z,1.26
2023-03-16T00:26:48.566Z,1.29
2023-03-16T00:29:57.002Z,1.35
2023-03-16T00:33:02.067Z,1.36
2023-03-16T00:36:09.336Z,1.32
2023-03-16T00:39:14.842Z,1.26
2023-03-16T00:42:20.013Z,1.33
2023-03-16T00:45:24.034Z,1.27
2023-03-16T00:48:28.073Z,1.22
2023-03-16T00:51:33.895Z,1.16
2023-03-16T00:54:37.981Z,1.15
2023-03-16T00:57:41.850Z,1.13
2023-03-16T01:00:46.514Z,1.13
2023-03-16T01:03:50.490Z,1.08
2023-03-16T01:06:55.364Z,1.09
2023-03-16T01:09:59.704Z,1.13
2023-03-16T01:13:04.161Z,1.12
2023-03-16T01:16:08.550Z,1.08
2023-03-16T01:19:13.194Z,1.07
2023-03-16T01:22:17.826Z,1.04
2023-03-16T01:25:21.797Z,1.10
2023-03-16T01:28:29.006Z,1.08
2023-03-16T01:31:33.278Z,1.03
2023-03-16T01:34:37.631Z,1.04
2023-03-16T01:37:41.742Z,1.06
2023-03-16T01:40:45.776Z,1.03
2023-03-16T01:43:51.827Z,1.02
2023-03-16T01:46:56.473Z,1.01
2023-03-16T01:50:00.489Z,0.92
2023-03-16T01:53:04.461Z,1.03
2023-03-16T01:56:11.122Z,0.98
2023-03-16T01:59:18.180Z,0.95
2023-03-16T02:02:25.796Z,0.91
2023-03-16T02:05:37.514Z,0.84
2023-03-16T02:08:43.645Z,0.78
2023-03-16T02:11:48.606Z,0.77
2023-03-16T02:14:53.257Z,0.77
2023-03-16T02:18:00.080Z,0.85
2023-03-16T02:21:16.204Z,0.81
2023-03-16T02:24:21.037Z,0.79
2023-03-16T02:27:42.730Z,0.73
2023-03-16T02:30:47.791Z,0.73
2023-03-16T02:33:54.022Z,0.71
2023-03-16T02:36:59.258Z,0.67
2023-03-16T02:40:29.152Z,0.67
2023-03-16T02:43:36.127Z,0.65
2023-03-16T02:46:43.503Z,0.56
2023-03-16T02:49:47.769Z,0.64
2023-03-16T02:52:51.957Z,0.57
2023-03-16T02:55:56.148Z,0.60
2023-03-16T02:59:01.184Z,0.63
2023-03-16T03:02:05.218Z,0.70
2023-03-16T03:05:09.390Z,0.68
2023-03-16T03:08:13.763Z,0.55
2023-03-16T03:11:19.607Z,0.49
2023-03-16T03:14:25.286Z,0.52
2023-03-16T03:17:32.105Z,0.53
2023-03-16T03:20:35.950Z,0.55
2023-03-16T03:23:40.452Z,0.52
2023-03-16T03:26:45.012Z,0.52
2023-03-16T03:29:49.436Z,0.46
2023-03-16T03:32:54.173Z,0.48
2023-03-16T03:35:59.711Z,0.45
2023-03-16T03:39:05.158Z,0.45
2023-03-16T03:42:09.338Z,0.41
2023-03-16T03:45:14.463Z,0.40
2023-03-16T03:48:18.311Z,0.42
2023-03-16T03:51:22.552Z,0.44
2023-03-16T03:54:26.480Z,0.45
2023-03-16T03:57:30.727Z,0.46
2023-03-16T04:00:35.662Z,0.43
2023-03-16T04:03:39.471Z,0.46
2023-03-16T04:06:43.618Z,0.43
2023-03-16T04:09:47.344Z,0.42
2023-03-16T04:12:51.390Z,0.42
2023-03-16T04:15:59.639Z,0.42
2023-03-16T04:19:04.347Z,0.41
2023-03-16T04:22:08.710Z,0.41
2023-03-16T04:25:14.912Z,0.39
2023-03-16T04:28:18.936Z,0.40
2023-03-16T04:31:23.195Z,0.38
2023-03-16T04:34:27.252Z,0.34
2023-03-16T04:37:31.617Z,0.36
2023-03-16T04:40:35.545Z,0.35
2023-03-16T04:43:39.707Z,0.33
2023-03-16T04:46:43.617Z,0.36
2023-03-16T04:49:47.882Z,0.29
2023-03-16T04:52:52.135Z,0.36
2023-03-16T04:55:56.363Z,0.40
2023-03-16T04:59:00.391Z,0.31
2023-03-16T05:02:04.515Z,0.35
2023-03-16T05:05:09.085Z,0.31
2023-03-16T05:08:13.335Z,0.26
2023-03-16T05:11:17.505Z,0.28
2023-03-16T05:14:21.319Z,0.29
2023-03-16T05:17:25.522Z,0.29
2023-03-16T05:20:30.106Z,0.26
2023-03-16T05:23:34.398Z,0.27
2023-03-16T05:26:38.786Z,0.29
2023-03-16T05:29:46.695Z,0.30
2023-03-16T05:32:51.332Z,0.30
2023-03-16T05:35:54.992Z,0.40
2023-03-16T05:38:59.357Z,0.40
2023-03-16T05:42:05.733Z,0.40
2023-03-16T05:45:11.362Z,0.37
2023-03-16T05:48:15.587Z,0.45
2023-03-16T05:51:19.487Z,0.44
2023-03-16T05:54:24.192Z,0.49
2023-03-16T05:57:29.003Z,0.50
2023-03-16T06:00:33.040Z,0.49
2023-03-16T06:03:37.322Z,0.51
2023-03-16T06:06:40.994Z,0.62
2023-03-16T06:09:44.777Z,0.65
2023-03-16T06:12:49.208Z,0.64
2023-03-16T06:15:53.599Z,0.67
2023-03-16T06:18:59.755Z,0.70
2023-03-16T06:22:03.923Z,0.74
2023-03-16T06:25:09.885Z,0.85
2023-03-16T06:28:14.405Z,0.91
2023-03-16T06:31:19.083Z,0.99
2023-03-16T06:34:23.289Z,1.06
2023-03-16T06:37:28.424Z,1.23
2023-03-16T06:40:33.354Z,1.29
2023-03-16T06:43:37.480Z,1.25
2023-03-16T06:46:41.677Z,1.34
2023-03-16T06:49:46.994Z,1.30
2023-03-16T06:52:51.605Z,1.37
2023-03-16T06:55:55.488Z,1.30
2023-03-16T06:58:59.803Z,1.38
2023-03-16T07:02:04.677Z,1.39
2023-03-16T07:05:13.026Z,1.53
2023-03-16T07:08:17.418Z,2.33
2023-03-16T07:11:21.462Z,4.24
2023-03-16T07:14:26.261Z,5.88
2023-03-16T07:17:30.135Z,6.76
2023-03-16T07:20:35.256Z,7.25
2023-03-16T07:23:40.484Z,6.76
2023-03-16T07:26:44.671Z,6.64
2023-03-16T07:29:49.456Z,6.31
2023-03-16T07:32:53.757Z,6.02
2023-03-16T07:35:58.547Z,6.08
2023-03-16T07:39:03.569Z,6.11
2023-03-16T07:42:08.474Z,6.33
2023-03-16T07:45:14.340Z,6.22
2023-03-16T07:48:19.341Z,6.71
2023-03-16T07:51:23.708Z,7.36
2023-03-16T07:54:27.757Z,7.48
2023-03-16T07:57:31.816Z,7.67
2023-03-16T08:00:36.860Z,8.04
2023-03-16T08:03:41.004Z,7.81
2023-03-16T08:06:45.629Z,7.64
2023-03-16T08:09:49.691Z,8.14
2023-03-16T08:12:53.944Z,8.48
2023-03-16T08:16:02.296Z,8.17
2023-03-16T08:19:06.452Z,8.43
2023-03-16T08:22:10.623Z,8.48
2023-03-16T08:25:15.412Z,8.21
2023-03-16T08:28:21.586Z,8.07
2023-03-16T08:31:25.937Z,8.12
2023-03-16T08:34:30.360Z,7.92
2023-03-16T08:37:34.577Z,7.67
2023-03-16T08:40:42.056Z,7.61
2023-03-16T08:43:46.716Z,7.48
2023-03-16T08:46:51.921Z,7.57
2023-03-16T08:49:57.254Z,7.65
2023-03-16T08:53:01.515Z,7.91
2023-03-16T08:56:10.153Z,7.86
2023-03-16T08:59:27.320Z,7.90
2023-03-16T09:02:33.629Z,7.95
2023-03-16T09:05:38.224Z,8.01
2023-03-16T09:08:45.363Z,7.93
2023-03-16T09:11:49.820Z,8.18
2023-03-16T09:14:54.273Z,8.39
2023-03-16T09:18:00.652Z,8.14
2023-03-16T09:21:07.602Z,8.21
2023-03-16T09:24:11.804Z,8.17
2023-03-16T09:27:16.249Z,8.17
2023-03-16T09:30:20.768Z,8.18
2023-03-16T09:33:26.259Z,7.99
2023-03-16T09:36:30.828Z,7.86
2023-03-16T09:39:34.737Z,8.04
2023-03-16T09:42:49.215Z,8.13
2023-03-16T09:46:05.536Z,8.14
2023-03-16T09:49:11.714Z,8.12
2023-03-16T09:52:33.364Z,7.93
2023-03-16T09:55:57.847Z,7.91
2023-03-16T09:59:22.613Z,7.89
2023-03-16T10:03:23.417Z,7.79
2023-03-16T10:06:28.429Z,7.61
2023-03-16T10:09:38.311Z,7.58
2023-03-16T10:12:47.736Z,7.47
2023-03-16T10:15:54.029Z,7.39
2023-03-16T10:19:05.884Z,7.31
2023-03-16T10:22:29.740Z,7.24
2023-03-16T10:25:54.169Z,7.46
2023-03-16T10:29:01.012Z,7.54
2023-03-16T10:32:17.399Z,7.54
2023-03-16T10:35:41.361Z,7.66
2023-03-16T10:38:59.708Z,7.70
2023-03-16T10:42:03.652Z,7.72
2023-03-16T10:45:25.370Z,7.77
2023-03-16T10:48:34.126Z,7.79
2023-03-16T10:51:38.391Z,7.78
2023-03-16T10:54:50.111Z,7.75
2023-03-16T10:57:56.516Z,7.99
2023-03-16T11:01:00.648Z,8.25
2023-03-16T11:04:15.618Z,8.27
2023-03-16T11:07:24.099Z,8.37
2023-03-16T11:10:36.159Z,8.50
2023-03-16T11:13:47.298Z,8.59
2023-03-16T11:17:02.345Z,8.48
2023-03-16T11:20:17.567Z,8.74
2023-03-16T11:23:30.397Z,8.97
2023-03-16T11:26:39.367Z,8.77
2023-03-16T11:29:53.731Z,8.75
2023-03-16T11:33:00.479Z,8.81
2023-03-16T11:36:30.752Z,8.63
2023-03-16T11:39:44.391Z,8.69
2023-03-16T11:43:02.781Z,8.54
2023-03-16T11:46:25.877Z,8.59
2023-03-16T11:49:35.604Z,8.65
2023-03-16T11:52:39.564Z,8.79
2023-03-16T11:56:01.774Z,8.92
2023-03-16T11:59:33.879Z,9.00
2023-03-16T12:02:56.847Z,8.91
2023-03-16T12:06:22.087Z,9.11
2023-03-16T12:09:50.919Z,9.22
2023-03-16T12:13:10.480Z,9.26
2023-03-16T12:16:21.323Z,9.37
2023-03-16T12:19:43.617Z,9.48
2023-03-16T12:22:53.725Z,9.54
2023-03-16T12:26:03.473Z,9.70
2023-03-16T12:29:14.630Z,9.88
2023-03-16T12:32:46.656Z,9.89
2023-03-16T12:36:12.674Z,9.95
2023-03-16T12:39:35.806Z,9.85
2023-03-16T12:42:40.413Z,10.11
2023-03-16T12:45:54.873Z,10.18
2023-03-16T12:49:02.145Z,10.01
2023-03-16T12:52:11.114Z,10.18
2023-03-16T12:55:27.913Z,9.99
2023-03-16T12:58:32.975Z,9.91
2023-03-16T13:01:44.465Z,9.86
2023-03-16T13:04:59.766Z,9.82
2023-03-16T13:08:08.943Z,9.78
2023-03-16T13:11:16.406Z,9.84
2023-03-16T13:14:44.190Z,9.78
2023-03-16T13:18:09.849Z,9.97
2023-03-16T13:21:16.134Z,10.06
2023-03-16T13:24:20.157Z,9.98
2023-03-16T13:27:30.778Z,9.94
2023-03-16T13:30:36.961Z,9.86
2023-03-16T13:33:41.014Z,10.07
2023-03-16T13:36:45.440Z,10.03
2023-03-16T13:39:58.533Z,10.01
2023-03-16T13:43:02.567Z,9.90
2023-03-16T13:46:22.348Z,9.77
2023-03-16T13:49:26.401Z,9.96
2023-03-16T13:52:33.286Z,9.93
2023-03-16T13:55:38.559Z,9.92
2023-03-16T13:58:47.538Z,10.03
2023-03-16T14:02:01.800Z,9.94
2023-03-16T14:05:18.875Z,9.99
2023-03-16T14:08:24.750Z,10.00
2023-03-16T14:11:29.414Z,9.92
2023-03-16T14:14:41.480Z,9.79
2023-03-16T14:17:46.307Z,9.76
2023-03-16T14:20:52.965Z,9.81
2023-03-16T14:24:04.657Z,9.83
2023-03-16T14:27:19.935Z,9.87
2023-03-16T14:30:27.700Z,9.82
2023-03-16T14:33:39.973Z,10.03
2023-03-16T14:36:44.160Z,9.98
2023-03-16T14:39:59.060Z,10.09
2023-03-16T14:43:05.602Z,9.86
2023-03-16T14:46:15.990Z,9.78
2023-03-16T14:49:24.417Z,9.77
2023-03-16T14:52:32.890Z,9.86
2023-03-16T14:55:37.683Z,10.08
2023-03-16T14:58:42.003Z,10.55
2023-03-16T15:01:47.460Z,10.43
2023-03-16T15:04:51.832Z,10.41
2023-03-16T15:07:56.206Z,10.18
2023-03-16T15:11:03.031Z,10.01
2023-03-16T15:14:35.074Z,9.90
2023-03-16T15:17:39.429Z,9.65
2023-03-16T15:20:45.573Z,9.54
2023-03-16T15:23:50.151Z,9.42
2023-03-16T15:26:55.240Z,9.37
2023-03-16T15:29:58.863Z,9.16
2023-03-16T15:33:03.335Z,9.20
2023-03-16T15:36:18.984Z,9.18
2023-03-16T15:39:24.986Z,9.08
2023-03-16T15:42:28.997Z,9.11
2023-03-16T15:45:33.497Z,9.17
2023-03-16T15:48:38.913Z,9.08
2023-03-16T15:51:43.219Z,9.01
2023-03-16T15:54:48.440Z,9.21
2023-03-16T15:57:58.989Z,9.09
2023-03-16T16:01:04.683Z,8.98
2023-03-16T16:04:15.597Z,8.91
2023-03-16T16:07:20.121Z,8.95
2023-03-16T16:10:25.762Z,8.97
2023-03-16T16:13:43.663Z,9.02
2023-03-16T16:16:49.183Z,8.91
2023-03-16T16:19:53.571Z,8.86
2023-03-16T16:23:03.048Z,8.78
2023-03-16T16:26:12.815Z,8.75
2023-03-16T16:29:22.090Z,9.00
2023-03-16T16:32:26.410Z,8.94
2023-03-16T16:35:31.361Z,8.84
2023-03-16T16:38:36.087Z,8.88
2023-03-16T16:41:40.692Z,8.84
2023-03-16T16:44:44.893Z,8.81
2023-03-16T16:47:52.267Z,8.81
2023-03-16T16:50:56.669Z,8.76
2023-03-16T16:54:02.070Z,8.88
2023-03-16T16:57:17.081Z,8.68
2023-03-16T17:00:23.873Z,8.51
2023-03-16T17:03:29.361Z,8.55
2023-03-16T17:06:33.318Z,8.51
2023-03-16T17:09:37.578Z,8.54
2023-03-16T17:12:41.596Z,8.44
2023-03-16T17:15:45.768Z,8.30
2023-03-16T17:18:49.889Z,8.39
2023-03-16T17:21:55.984Z,8.29
2023-03-16T17:25:00.564Z,8.25
2023-03-16T17:28:05.608Z,8.22
2023-03-16T17:31:12.761Z,8.40
2023-03-16T17:34:25.425Z,8.38
2023-03-16T17:37:30.026Z,8.33
2023-03-16T17:40:34.377Z,8.27
2023-03-16T17:43:38.684Z,8.25
2023-03-16T17:46:42.916Z,8.22
2023-03-16T17:49:49.144Z,8.22
2023-03-16T17:52:53.249Z,8.25
2023-03-16T17:55:57.591Z,8.27
2023-03-16T17:59:05.446Z,8.24
2023-03-16T18:02:49.626Z,8.15
2023-03-16T18:05:53.622Z,8.15
2023-03-16T18:08:58.172Z,8.07
2023-03-16T18:12:02.294Z,7.99
2023-03-16T18:15:07.074Z,8.08
2023-03-16T18:18:18.805Z,7.98
2023-03-16T18:21:24.606Z,7.80
2023-03-16T18:24:28.752Z,7.73
2023-03-16T18:27:34.467Z,7.74
2023-03-16T18:30:41.245Z,7.74
2023-03-16T18:33:46.672Z,7.62
2023-03-16T18:36:53.345Z,7.66
2023-03-16T18:39:58.108Z,7.57
2023-03-16T18:43:02.531Z,7.57
2023-03-16T18:46:20.391Z,7.60
2023-03-16T18:49:33.517Z,7.53
2023-03-16T18:52:39.137Z,7.50
2023-03-16T18:55:44.957Z,7.40
2023-03-16T18:58:50.127Z,7.39
2023-03-16T19:01:54.524Z,7.40
2023-03-16T19:05:02.021Z,7.39
2023-03-16T19:08:06.699Z,7.35
2023-03-16T19:11:13.251Z,7.26
2023-03-16T19:14:24.464Z,7.22
2023-03-16T19:17:28.902Z,7.10
2023-03-16T19:20:34.774Z,7.19
2023-03-16T19:23:39.342Z,7.07
2023-03-16T19:26:43.861Z,7.12
2023-03-16T19:29:51.566Z,6.99
2023-03-16T19:32:56.953Z,6.90
2023-03-16T19:36:01.183Z,6.93
2023-03-16T19:39:05.630Z,6.84
2023-03-16T19:42:20.451Z,6.76
2023-03-16T19:45:33.209Z,6.86
2023-03-16T19:48:37.609Z,6.84
2023-03-16T19:51:41.547Z,6.90
2023-03-16T19:54:46.072Z,6.74
2023-03-16T19:57:58.333Z,6.75
2023-03-16T20:01:02.630Z,6.83
2023-03-16T20:04:15.301Z,6.81
2023-03-16T20:07:19.200Z,6.86
2023-03-16T20:10:26.204Z,6.81
2023-03-16T20:13:31.463Z,6.75
2023-03-16T20:16:36.163Z,6.83
2023-03-16T20:19:40.290Z,6.82
2023-03-16T20:22:44.154Z,6.71
2023-03-16T20:25:48.835Z,6.71
2023-03-16T20:28:53.184Z,6.72
2023-03-16T20:31:58.171Z,6.80
2023-03-16T20:35:02.363Z,6.75
2023-03-16T20:38:12.738Z,6.62
2023-03-16T20:41:29.248Z,6.59
2023-03-16T20:44:33.262Z,6.62
2023-03-16T20:47:37.573Z,6.46
2023-03-16T20:50:42.054Z,6.44
2023-03-16T20:53:47.328Z,6.42
2023-03-16T20:56:51.525Z,6.38
2023-03-16T20:59:56.481Z,6.35
2023-03-16T21:03:02.193Z,6.26
2023-03-16T21:06:10.231Z,6.31
2023-03-16T21:09:14.635Z,6.22
2023-03-16T21:12:31.914Z,6.28
2023-03-16T21:15:36.280Z,6.26
2023-03-16T21:18:40.210Z,6.22
2023-03-16T21:21:44.752Z,6.05
2023-03-16T21:24:48.813Z,6.11
2023-03-16T21:27:55.439Z,6.10
2023-03-16T21:30:59.896Z,6.07
2023-03-16T21:34:05.594Z,6.11
2023-03-16T21:37:22.295Z,6.05
2023-03-16T21:40:27.373Z,5.99
2023-03-16T21:43:32.143Z,5.99
2023-03-16T21:46:36.724Z,6.02
2023-03-16T21:49:41.378Z,5.96
2023-03-16T21:52:46.773Z,6.02
2023-03-16T21:55:51.947Z,6.06
2023-03-16T21:58:56.235Z,5.94
2023-03-16T22:02:02.306Z,5.97
2023-03-16T22:05:24.412Z,5.90
2023-03-16T22:08:32.684Z,5.96
2023-03-16T22:11:36.628Z,5.91
2023-03-16T22:14:41.832Z,5.83
2023-03-16T22:17:46.843Z,5.86
2023-03-16T22:20:50.774Z,5.92
2023-03-16T22:23:56.968Z,5.91
2023-03-16T22:27:01.072Z,5.90
2023-03-16T22:30:06.415Z,5.76
2023-03-16T22:33:16.869Z,5.75
2023-03-16T22:36:22.766Z,5.79
2023-03-16T22:39:27.082Z,5.72
2023-03-16T22:42:38.822Z,5.78
2023-03-16T22:45:43.100Z,5.65
2023-03-16T22:48:47.202Z,5.70
2023-03-16T22:51:52.737Z,5.68
2023-03-16T22:54:58.439Z,5.58
2023-03-16T22:58:12.619Z,5.60
2023-03-16T23:01:26.360Z,5.52
2023-03-16T23:04:32.408Z,5.56
2023-03-16T23:07:36.489Z,5.54
2023-03-16T23:10:40.971Z,5.42
2023-03-16T23:13:45.038Z,5.46
2023-03-16T23:16:50.331Z,5.44
2023-03-16T23:19:54.740Z,5.50
2023-03-16T23:22:59.016Z,5.43
2023-03-16T23:26:03.961Z,5.45
2023-03-16T23:29:10.962Z,5.51
2023-03-16T23:32:16.972Z,5.51
2023-03-16T23:35:24.595Z,5.47
2023-03-16T23:38:28.617Z,5.48
2023-03-16T23:41:34.432Z,5.41
2023-03-16T23:44:38.400Z,5.37
2023-03-16T23:47:42.617Z,5.32
2023-03-16T23:50:49.407Z,5.35
2023-03-16T23:53:53.973Z,5.41
2023-03-16T23:56:57.960Z,5.26
